Time;durP1;ratioP1;P1;durP2;ratioP2;P2;SDS_P1;SDS_P2;PMS_P1;PMS_P2;Temp;Humidity;BMP_temperature;BMP_pressure;BME280_temperature;BME280_humidity;BME280_pressure;Samples;Min_cycle;Max_cycle;Signal;HPM_P1;HPM_P2
2021/11/29 00:00:11;;;;;;;41.17;26.52;;;;;;;-0.71;100.00;94056.88;1022383;28;20601;-61
2021/11/29 00:00:45;;;;;;;39.44;26.48;;;;;;;-0.69;100.00;94056.66;1026724;28;20618;-61
2021/11/29 00:01:17;;;;;;;41.90;26.04;;;;;;;-0.66;100.00;94056.19;1025307;28;20050;-61
2021/11/29 00:01:54;;;;;;;42.38;26.20;;;;;;;-0.66;100.00;94056.97;1025576;28;20069;-61
2021/11/29 00:02:24;;;;;;;45.08;26.28;;;;;;;-0.71;100.00;94054.31;1021800;29;20051;-62
2021/11/29 00:02:58;;;;;;;41.75;25.95;;;;;;;-0.70;100.00;94058.47;1022535;28;20077;-61
2021/11/29 00:03:29;;;;;;;39.76;25.40;;;;;;;-0.68;100.00;94058.22;1021878;29;20539;-62
2021/11/29 00:03:59;;;;;;;41.94;25.96;;;;;;;-0.68;100.00;94058.22;1022005;28;20099;-62
2021/11/29 00:04:30;;;;;;;48.65;28.70;;;;;;;-0.68;100.00;94053.06;1025174;28;20509;-60
2021/11/29 00:05:00;;;;;;;42.78;27.77;;;;;;;-0.72;100.00;94056.09;1021599;28;20051;-62
2021/11/29 00:05:31;;;;;;;42.75;26.55;;;;;;;-0.66;100.00;94059.56;1021657;29;20545;-60
2021/11/29 00:06:02;;;;;;;43.22;27.63;;;;;;;-0.68;100.00;94058.22;1021694;29;20084;-61
2021/11/29 00:06:32;;;;;;;43.45;27.40;;;;;;;-0.87;100.00;94032.72;1021601;29;20093;-63
2021/11/29 00:07:03;;;;;;;43.80;28.35;;;;;;;-0.67;100.00;94067.50;1017801;29;20079;-63
2021/11/29 00:07:33;;;;;;;44.53;27.27;;;;;;;-0.65;100.00;94062.91;1020587;29;20020;-60
2021/11/29 00:08:04;;;;;;;48.17;27.67;;;;;;;-0.74;100.00;94055.56;1021587;29;20114;-63
2021/11/29 00:08:35;;;;;;;48.52;28.00;;;;;;;-0.67;100.00;94065.72;1021824;28;20020;-60
2021/11/29 00:09:05;;;;;;;44.80;26.75;;;;;;;-0.68;100.00;94063.38;1026002;28;20022;-62
2021/11/29 00:09:36;;;;;;;44.67;29.00;;;;;;;-0.78;100.00;94049.31;1025554;28;20069;-62
2021/11/29 00:10:07;;;;;;;46.80;28.75;;;;;;;-0.68;100.00;94063.38;1017248;29;20031;-63
2021/11/29 00:10:37;;;;;;;51.50;29.20;;;;;;;-0.72;100.00;94063.06;1018030;29;20023;-63
2021/11/29 00:11:08;;;;;;;53.08;30.80;;;;;;;-0.74;100.00;94063.31;1017953;29;20134;-62
2021/11/29 00:11:39;;;;;;;49.38;30.75;;;;;;;-0.74;100.00;94060.72;1018821;29;20023;-62
2021/11/29 00:12:09;;;;;;;45.35;28.80;;;;;;;-0.71;100.00;94059.47;1021233;28;20355;-62
2021/11/29 00:12:40;;;;;;;49.88;30.58;;;;;;;-0.70;100.00;94066.19;1022436;28;20022;-62
2021/11/29 00:13:10;;;;;;;52.22;30.92;;;;;;;-0.72;100.00;94066.41;1025973;28;20126;-59
2021/11/29 00:13:41;;;;;;;51.40;31.70;;;;;;;-0.68;100.00;94065.94;1020044;29;20094;-62
2021/11/29 00:14:12;;;;;;;50.22;30.45;;;;;;;-0.68;100.00;94071.09;1020239;29;20024;-61
2021/11/29 00:14:42;;;;;;;55.13;32.20;;;;;;;-0.72;100.00;94068.97;1021196;28;20026;-62
2021/11/29 00:15:13;;;;;;;47.05;30.35;;;;;;;-0.68;100.00;94074.44;1021926;28;20058;-62
2021/11/29 00:15:43;;;;;;;51.83;29.45;;;;;;;-0.78;100.00;94054.47;1026294;28;20038;-62
2021/11/29 00:16:14;;;;;;;52.35;30.02;;;;;;;-0.68;100.00;94073.66;1025962;28;20050;-62
2021/11/29 00:16:44;;;;;;;49.28;30.10;;;;;;;-0.71;100.00;94065.38;1026288;28;20640;-62
2021/11/29 00:17:19;;;;;;;45.88;30.08;;;;;;;-0.78;100.00;94064.75;1026812;28;20026;-63
2021/11/29 00:17:49;;;;;;;48.82;29.24;;;;;;;-0.75;100.00;94066.88;1022788;28;20123;-62
2021/11/29 00:18:20;;;;;;;51.97;30.70;;;;;;;-0.74;100.00;94070.22;1018167;29;20050;-60
2021/11/29 00:18:50;;;;;;;48.22;28.95;;;;;;;-0.73;100.00;94069.22;1018453;29;20111;-61
2021/11/29 00:19:21;;;;;;;49.08;30.00;;;;;;;-0.75;100.00;94072.03;1018487;29;20024;-64
2021/11/29 00:19:51;;;;;;;47.03;29.75;;;;;;;-0.79;100.00;94062.44;1021524;28;20383;-61
2021/11/29 00:20:21;;;;;;;46.15;28.48;;;;;;;-0.76;100.00;94067.91;1026594;28;20106;-59
2021/11/29 00:20:52;;;;;;;47.55;29.98;;;;;;;-0.71;100.00;94072.34;1022322;29;20095;-61
2021/11/29 00:21:23;;;;;;;47.20;29.98;;;;;;;-0.72;100.00;94074.13;1022644;28;20043;-60
2021/11/29 00:21:53;;;;;;;44.85;28.70;;;;;;;-0.75;100.00;94074.59;1026247;28;20035;-62
2021/11/29 00:22:23;;;;;;;44.42;29.05;;;;;;;-0.75;100.00;94077.16;1026434;28;20070;-63
2021/11/29 00:22:54;;;;;;;43.13;28.20;;;;;;;-0.78;100.00;94076.84;1018428;29;20474;-62
2021/11/29 00:23:24;;;;;;;49.10;29.67;;;;;;;-0.77;100.00;94070.69;1017817;29;20024;-63
2021/11/29 00:23:55;;;;;;;45.95;30.42;;;;;;;-0.77;100.00;94079.22;1022378;29;20015;-64
2021/11/29 00:24:25;;;;;;;44.63;28.70;;;;;;;-0.77;100.00;94073.25;1022404;28;20030;-62
2021/11/29 00:24:56;;;;;;;49.03;30.90;;;;;;;-0.77;100.00;94081.78;1021783;29;20397;-62
2021/11/29 00:25:26;;;;;;;54.85;30.50;;;;;;;-0.77;100.00;94076.63;1021558;29;20034;-61
2021/11/29 00:25:57;;;;;;;52.47;30.25;;;;;;;-0.77;100.00;94079.22;1022256;28;20039;-62
2021/11/29 00:26:28;;;;;;;45.80;29.50;;;;;;;-0.86;100.00;94062.56;1026358;28;20086;-61
2021/11/29 00:26:58;;;;;;;49.95;31.48;;;;;;;-0.78;100.00;94071.72;1026124;28;20022;-63
2021/11/29 00:27:29;;;;;;;47.90;29.23;;;;;;;-0.81;100.00;94078.09;1026341;28;20754;-62
2021/11/29 00:27:59;;;;;;;46.55;29.65;;;;;;;-0.82;100.00;94081.69;1026669;28;20033;-62
2021/11/29 00:28:30;;;;;;;53.42;31.98;;;;;;;-0.83;100.00;94081.94;1026603;28;20523;-61
2021/11/29 00:29:00;;;;;;;53.63;31.38;;;;;;;-0.85;100.00;94087.31;1022806;28;20030;-62
2021/11/29 00:29:31;;;;;;;53.47;31.23;;;;;;;-0.88;100.00;94084.41;1026513;28;20035;-61
2021/11/29 00:30:01;;;;;;;52.55;31.40;;;;;;;-0.90;100.00;94084.66;1026715;28;20027;-61
2021/11/29 00:30:32;;;;;;;49.40;30.67;;;;;;;-0.89;100.00;94083.63;1030319;28;20393;-61
2021/11/29 00:31:02;;;;;;;59.13;33.22;;;;;;;-0.91;100.00;94085.66;1030469;28;20548;-60
2021/11/29 00:31:33;;;;;;;48.75;30.63;;;;;;;-0.93;100.00;94082.53;1026625;28;20014;-62
2021/11/29 00:32:04;;;;;;;53.80;32.28;;;;;;;-0.91;100.00;94084.88;1029235;28;20026;-62
2021/11/29 00:32:34;;;;;;;66.92;35.88;;;;;;;-0.89;100.00;94088.78;1026171;28;20165;-62
2021/11/29 00:33:07;;;;;;;59.65;33.85;;;;;;;-0.88;100.00;94085.19;1026475;28;20719;-61
2021/11/29 00:33:38;;;;;;;59.48;33.34;;;;;;;-0.89;100.00;94088.78;1022301;29;20027;-62
2021/11/29 00:34:09;;;;;;;58.22;32.30;;;;;;;-0.91;100.00;94079.72;1022785;28;20469;-62
2021/11/29 00:34:40;;;;;;;59.26;33.88;;;;;;;-0.94;100.00;94086.13;1026167;28;20297;-61
2021/11/29 00:35:10;;;;;;;62.60;35.45;;;;;;;-1.02;100.00;94073.63;1022520;28;20082;-61
2021/11/29 00:35:41;;;;;;;59.42;34.20;;;;;;;-0.94;100.00;94080.97;1022374;29;20098;-62
2021/11/29 00:36:11;;;;;;;64.00;35.67;;;;;;;-0.92;100.00;94076.38;1022414;29;20027;-61
2021/11/29 00:36:42;;;;;;;58.45;33.75;;;;;;;-0.91;100.00;94087.44;1022537;28;20098;-62
2021/11/29 00:37:12;;;;;;;58.13;32.95;;;;;;;-0.91;100.00;94079.72;1026403;28;20539;-62
2021/11/29 00:37:42;;;;;;;70.57;36.65;;;;;;;-0.91;100.00;94082.31;1026521;28;20027;-62
2021/11/29 00:38:13;;;;;;;54.78;31.98;;;;;;;-0.94;100.00;94080.97;1022148;29;20023;-63
2021/11/29 00:38:44;;;;;;;66.70;35.85;;;;;;;-1.01;100.00;94075.97;1021942;28;20027;-62
2021/11/29 00:39:16;;;;;;;63.60;34.30;;;;;;;-0.94;100.00;94080.97;1022389;29;20035;-62
2021/11/29 00:39:46;;;;;;;58.08;33.54;;;;;;;-0.95;100.00;94081.97;1021648;29;20027;-62
2021/11/29 00:40:17;;;;;;;64.60;34.42;;;;;;;-0.96;100.00;94088.16;1021790;29;20110;-62
2021/11/29 00:40:47;;;;;;;74.88;37.35;;;;;;;-0.99;100.00;94086.81;1023141;28;20023;-62
2021/11/29 00:41:18;;;;;;;66.70;35.40;;;;;;;-0.99;100.00;94086.03;1027520;28;20023;-63
2021/11/29 00:41:48;;;;;;;63.25;34.15;;;;;;;-0.98;100.00;94085.03;1023081;29;20024;-63
2021/11/29 00:42:19;;;;;;;70.80;36.58;;;;;;;-0.98;100.00;94087.59;1022958;29;20030;-62
2021/11/29 00:42:49;;;;;;;67.05;36.45;;;;;;;-1.00;100.00;94092.22;1023037;29;20016;-59
2021/11/29 00:43:20;;;;;;;74.10;36.20;;;;;;;-1.04;100.00;94084.16;1023123;29;20030;-61
2021/11/29 00:43:50;;;;;;;64.53;36.55;;;;;;;-0.99;100.00;94093.75;1026724;28;20142;-61
2021/11/29 00:44:21;;;;;;;62.30;34.50;;;;;;;-0.96;100.00;94093.31;1026863;28;20046;-61
2021/11/29 00:44:51;;;;;;;64.53;35.40;;;;;;;-0.96;100.00;94090.72;1030275;28;20026;-61
2021/11/29 00:45:22;;;;;;;66.65;37.55;;;;;;;-0.94;100.00;94086.13;1022028;29;20474;-63
2021/11/29 00:45:52;;;;;;;64.50;35.72;;;;;;;-0.96;100.00;94086.34;1019276;29;20019;-62
2021/11/29 00:46:23;;;;;;;58.13;34.70;;;;;;;-0.95;100.00;94090.47;1018301;29;20031;-61
2021/11/29 00:46:54;;;;;;;69.97;37.13;;;;;;;-0.96;100.00;94093.31;1014499;29;20048;-61
2021/11/29 00:47:24;;;;;;;63.52;36.30;;;;;;;-0.97;100.00;94091.75;1026217;28;20065;-62
2021/11/29 00:47:56;;;;;;;57.55;34.03;;;;;;;-0.95;100.00;94089.72;1026193;28;20101;-63
2021/11/29 00:48:26;;;;;;;60.48;34.64;;;;;;;-0.98;100.00;94093.53;1026350;28;20035;-62
2021/11/29 00:48:56;;;;;;;71.07;37.55;;;;;;;-0.99;100.00;94096.34;1021830;29;20549;-64
2021/11/29 00:49:27;;;;;;;60.63;33.42;;;;;;;-0.98;100.00;94090.16;1022380;29;20071;-62
2021/11/29 00:49:58;;;;;;;76.07;38.83;;;;;;;-1.03;100.00;94087.53;1021851;28;20019;-62
2021/11/29 00:50:28;;;;;;;63.72;37.70;;;;;;;-1.10;100.00;94082.50;1026554;28;20029;-63
2021/11/29 00:51:01;;;;;;;59.08;33.88;;;;;;;-1.02;100.00;94089.06;1030195;28;20487;-62
2021/11/29 00:51:32;;;;;;;63.70;37.18;;;;;;;-1.02;100.00;94086.50;1026458;28;20018;-61
2021/11/29 00:52:03;;;;;;;75.03;38.20;;;;;;;-1.04;100.00;94091.09;1022257;29;20047;-62
2021/11/29 00:52:33;;;;;;;62.50;35.08;;;;;;;-1.03;100.00;94090.09;1014505;29;20059;-61
2021/11/29 00:53:09;;;;;;;69.13;36.55;;;;;;;-1.04;100.00;94091.09;1014727;29;20120;-63
2021/11/29 00:53:39;;;;;;;62.68;34.44;;;;;;;-1.05;100.00;94089.53;1019103;29;20829;-63
2021/11/29 00:54:10;;;;;;;67.53;36.83;;;;;;;-1.06;100.00;94098.28;1026648;28;20015;-62
2021/11/29 00:54:40;;;;;;;73.15;38.42;;;;;;;-1.07;100.00;94105.22;1030073;28;20600;-60
2021/11/29 00:55:11;;;;;;;59.08;32.13;;;;;;;-1.07;100.00;94096.72;1031045;28;20038;-62
2021/11/29 00:55:42;;;;;;;69.94;37.56;;;;;;;-1.05;100.00;94094.69;1026684;28;20679;-60
2021/11/29 00:56:13;;;;;;;66.65;35.25;;;;;;;-1.12;100.00;94091.47;1023062;29;20034;-65
2021/11/29 00:56:43;;;;;;;66.76;35.48;;;;;;;-1.04;100.00;94096.22;1023259;29;20016;-62
2021/11/29 00:57:14;;;;;;;57.88;32.83;;;;;;;-1.05;100.00;94098.03;1023017;29;20504;-62
2021/11/29 00:57:45;;;;;;;67.57;36.10;;;;;;;-1.01;100.00;94100.91;1027274;28;20109;-62
2021/11/29 00:58:15;;;;;;;54.18;32.14;;;;;;;-1.01;100.00;94103.50;1023316;29;20063;-63
2021/11/29 00:58:46;;;;;;;62.08;34.78;;;;;;;-1.04;100.00;94097.03;1023008;29;20047;-62
2021/11/29 00:59:16;;;;;;;64.43;35.58;;;;;;;-1.05;100.00;94098.03;1022960;28;20035;-62
2021/11/29 00:59:48;;;;;;;69.20;37.65;;;;;;;-1.11;100.00;94100.75;1022712;28;20033;-60
2021/11/29 01:00:19;;;;;;;71.70;37.28;;;;;;;-1.10;100.00;94099.75;1030328;28;20021;-61
2021/11/29 01:00:50;;;;;;;76.08;37.16;;;;;;;-1.09;100.00;94099.50;1026723;28;20090;-61
2021/11/29 01:01:21;;;;;;;67.30;36.70;;;;;;;-1.19;100.00;94100.09;1027112;28;20495;-62
2021/11/29 01:01:54;;;;;;;69.64;35.88;;;;;;;-1.12;100.00;94105.13;1023028;29;20031;-63
2021/11/29 01:02:25;;;;;;;66.95;35.78;;;;;;;-1.11;100.00;94109.25;1015459;29;20056;-63
2021/11/29 01:02:55;;;;;;;60.15;35.10;;;;;;;-1.07;100.00;94101.88;1014997;29;20051;-61
2021/11/29 01:03:26;;;;;;;64.88;34.85;;;;;;;-1.12;100.00;94099.19;1015900;29;20268;-63
2021/11/29 01:03:56;;;;;;;67.60;36.03;;;;;;;-1.08;100.00;94100.28;1018927;29;20034;-62
2021/11/29 01:04:27;;;;;;;70.05;34.97;;;;;;;-1.13;100.00;94103.56;1027063;28;20535;-61
2021/11/29 01:04:57;;;;;;;59.67;34.53;;;;;;;-1.12;100.00;94109.47;1031022;28;20019;-63
2021/11/29 01:05:29;;;;;;;57.83;31.83;;;;;;;-1.17;100.00;94105.03;1027115;28;20023;-62
2021/11/29 01:06:00;;;;;;;62.68;34.88;;;;;;;-1.12;100.00;94099.19;1022417;28;20027;-62
2021/11/29 01:06:30;;;;;;;50.63;31.70;;;;;;;-1.14;100.00;94111.50;1019301;29;20015;-60
2021/11/29 01:07:01;;;;;;;60.13;33.70;;;;;;;-1.14;100.00;94106.34;1019020;29;20067;-62
2021/11/29 01:07:31;;;;;;;59.08;33.15;;;;;;;-1.16;100.00;94105.81;1018940;29;20071;-59
2021/11/29 01:08:02;;;;;;;66.82;34.70;;;;;;;-1.19;100.00;94110.41;1023091;28;20027;-62
2021/11/29 01:08:33;;;;;;;56.62;33.08;;;;;;;-1.20;100.00;94116.56;1026891;28;20107;-61
2021/11/29 01:09:03;;;;;;;52.33;29.65;;;;;;;-1.17;100.00;94111.94;1026889;28;20146;-62
2021/11/29 01:09:34;;;;;;;58.00;32.45;;;;;;;-1.20;100.00;94111.41;1026973;28;20026;-62
2021/11/29 01:10:05;;;;;;;60.80;34.58;;;;;;;-1.18;100.00;94113.75;1026517;28;20122;-63
2021/11/29 01:10:36;;;;;;;57.30;33.18;;;;;;;-1.19;100.00;94115.53;1030933;28;20101;-62
2021/11/29 01:11:09;;;;;;;61.47;34.25;;;;;;;-1.17;100.00;94117.09;1029615;28;20046;-63
2021/11/29 01:11:40;;;;;;;53.62;32.26;;;;;;;-1.17;100.00;94117.09;1031379;28;20104;-62
2021/11/29 01:12:10;;;;;;;64.60;36.10;;;;;;;-1.16;100.00;94118.69;1022997;29;20079;-60
2021/11/29 01:12:41;;;;;;;52.38;31.63;;;;;;;-1.17;100.00;94117.09;1022571;29;20042;-62
2021/11/29 01:13:11;;;;;;;55.38;31.77;;;;;;;-1.19;100.00;94120.69;1019305;29;20027;-62
2021/11/29 01:13:42;;;;;;;53.17;29.90;;;;;;;-1.13;100.00;94123.38;1019083;29;20027;-61
2021/11/29 01:14:12;;;;;;;51.92;30.98;;;;;;;-1.20;100.00;94116.56;1022152;29;20019;-63
2021/11/29 01:14:43;;;;;;;48.83;30.83;;;;;;;-1.12;100.00;94122.34;1019435;28;20024;-66
2021/11/29 01:15:16;;;;;;;55.40;31.60;;;;;;;-1.18;100.00;94118.88;1026966;28;20500;-62
2021/11/29 01:15:46;;;;;;;49.14;29.36;;;;;;;-1.11;100.00;94126.47;1026981;28;20560;-62
2021/11/29 01:16:17;;;;;;;50.42;30.35;;;;;;;-1.10;100.00;94126.25;1023263;28;20082;-62
2021/11/29 01:16:47;;;;;;;49.40;29.38;;;;;;;-1.09;100.00;94125.25;1027095;28;20110;-62
2021/11/29 01:17:18;;;;;;;48.25;30.35;;;;;;;-1.08;100.00;94131.16;1023268;29;20046;-62
2021/11/29 01:17:48;;;;;;;46.38;29.33;;;;;;;-1.11;100.00;94126.47;1026574;28;20141;-62
2021/11/29 01:18:19;;;;;;;46.83;30.17;;;;;;;-1.06;100.00;94129.16;1026856;28;20023;-62
2021/11/29 01:18:50;;;;;;;56.50;32.13;;;;;;;-1.04;100.00;94132.25;1019211;29;20192;-61
2021/11/29 01:19:20;;;;;;;52.60;30.33;;;;;;;-1.05;100.00;94130.72;1018990;29;20148;-60
2021/11/29 01:19:51;;;;;;;47.72;30.02;;;;;;;-1.04;100.00;94129.69;1019708;29;20051;-61
2021/11/29 01:20:21;;;;;;;51.08;30.67;;;;;;;-1.03;100.00;94128.69;1023097;28;20073;-63
2021/11/29 01:20:51;;;;;;;48.92;30.77;;;;;;;-1.02;100.00;94135.41;1027028;28;20838;-60
2021/11/29 01:21:22;;;;;;;50.33;31.20;;;;;;;-1.04;100.00;94127.13;1027297;28;20019;-62
2021/11/29 01:21:53;;;;;;;51.08;30.60;;;;;;;-1.03;100.00;94133.84;1026286;28;20507;-63
2021/11/29 01:22:23;;;;;;;51.70;31.55;;;;;;;-1.06;100.00;94134.31;1027331;28;20026;-62
2021/11/29 01:22:54;;;;;;;50.75;30.67;;;;;;;-1.04;100.00;94134.84;1023817;28;20019;-62
2021/11/29 01:23:24;;;;;;;50.67;30.35;;;;;;;-1.04;100.00;94129.69;1026980;28;20121;-62
2021/11/29 01:23:55;;;;;;;56.67;32.40;;;;;;;-1.05;100.00;94135.84;1023566;29;20445;-63
2021/11/29 01:24:25;;;;;;;50.25;30.15;;;;;;;-1.04;100.00;94137.41;1024988;28;20043;-63
2021/11/29 01:24:59;;;;;;;48.06;29.50;;;;;;;-1.01;100.00;94132.59;1024705;28;20034;-62
2021/11/29 01:25:30;;;;;;;48.55;30.08;;;;;;;-1.04;100.00;94130.50;1026510;28;20106;-62
2021/11/29 01:26:01;;;;;;;46.76;28.60;;;;;;;-1.01;100.00;94132.59;1027085;28;20035;-62
2021/11/29 01:26:31;;;;;;;45.47;28.55;;;;;;;-1.03;100.00;94136.41;1027357;28;20023;-62
2021/11/29 01:27:02;;;;;;;53.13;30.77;;;;;;;-1.07;100.00;94125.81;1031243;28;20034;-62
2021/11/29 01:27:32;;;;;;;49.38;29.10;;;;;;;-1.04;100.00;94132.25;1031257;28;20018;-62
2021/11/29 01:28:04;;;;;;;50.38;29.10;;;;;;;-1.06;100.00;94135.09;1031165;28;20025;-62
2021/11/29 01:29:15;;;;;;;53.52;27.88;;;;;;;-1.14;100.00;94121.78;1030653;28;20397;-68
2021/11/29 01:29:46;;;;;;;51.65;30.23;;;;;;;-1.13;100.00;94128.50;1024851;28;20111;-66
2021/11/29 01:30:16;;;;;;;54.42;29.60;;;;;;;-1.14;100.00;94126.94;1025244;28;20037;-69
2021/11/29 01:30:47;;;;;;;49.90;29.38;;;;;;;-1.18;100.00;94131.75;1025888;28;20022;-69
2021/11/29 01:31:17;;;;;;;57.65;31.55;;;;;;;-1.17;100.00;94137.69;1025963;28;20051;-68
2021/11/29 01:31:48;;;;;;;52.33;30.35;;;;;;;-1.17;100.00;94127.38;1022923;29;20016;-68
2021/11/29 01:32:18;;;;;;;57.00;32.28;;;;;;;-1.25;100.00;94124.16;1022942;29;20465;-68
2021/11/29 01:32:49;;;;;;;53.33;32.28;;;;;;;-1.21;100.00;94130.44;1018218;29;20016;-69
2021/11/29 01:33:19;;;;;;;58.85;32.00;;;;;;;-1.22;100.00;94130.66;1020441;29;20024;-68
2021/11/29 01:33:49;;;;;;;56.08;32.20;;;;;;;-1.23;100.00;94132.44;1018962;29;20267;-68
2021/11/29 01:34:20;;;;;;;55.53;31.65;;;;;;;-1.23;100.00;94135.03;1018792;29;20098;-68
2021/11/29 01:34:50;;;;;;;59.55;31.95;;;;;;;-1.27;100.00;94133.94;1018819;29;20020;-68
2021/11/29 01:35:21;;;;;;;58.65;31.27;;;;;;;-1.31;100.00;94132.81;1015317;29;20036;-69
2021/11/29 01:35:51;;;;;;;59.60;31.95;;;;;;;-1.36;100.00;94132.72;1011099;29;20024;-68
2021/11/29 01:36:22;;;;;;;63.70;33.45;;;;;;;-1.30;100.00;94139.53;1018800;29;20446;-68
2021/11/29 01:36:52;;;;;;;51.92;30.45;;;;;;;-1.27;100.00;94136.50;1021851;29;20059;-69
2021/11/29 01:37:23;;;;;;;60.05;32.63;;;;;;;-1.27;100.00;94143.44;1018951;29;20024;-69
2021/11/29 01:37:54;;;;;;;58.67;32.58;;;;;;;-1.31;100.00;94134.59;1018667;29;20095;-68
2021/11/29 01:38:25;;;;;;;58.20;33.12;;;;;;;-1.28;100.00;94142.63;1019153;29;20176;-69
2021/11/29 01:38:55;;;;;;;58.22;32.97;;;;;;;-1.34;100.00;94130.72;1015475;29;20031;-68
2021/11/29 01:39:26;;;;;;;59.28;33.38;;;;;;;-1.26;100.00;94145.00;1017856;29;20481;-68
2021/11/29 01:39:56;;;;;;;51.08;30.88;;;;;;;-1.19;100.00;94136.13;1018523;29;20464;-68
2021/11/29 01:40:29;;;;;;;49.30;29.20;;;;;;;-1.19;100.00;94143.06;1011006;29;20584;-69
2021/11/29 01:40:59;;;;;;;50.76;30.92;;;;;;;-1.19;100.00;94136.13;1015841;29;20039;-68
2021/11/29 01:41:30;;;;;;;50.40;31.05;;;;;;;-1.17;100.00;94142.81;1019090;29;20031;-68
2021/11/29 01:42:00;;;;;;;54.80;31.63;;;;;;;-1.17;100.00;94137.69;1017401;29;20024;-68
2021/11/29 01:42:31;;;;;;;56.35;31.63;;;;;;;-1.15;100.00;94135.66;1022879;29;20030;-68
2021/11/29 01:43:06;;;;;;;57.78;32.25;;;;;;;-1.15;100.00;94145.97;1019014;29;20521;-68
2021/11/29 01:43:36;;;;;;;47.54;29.32;;;;;;;-1.15;100.00;94141.59;1016385;29;20020;-68
2021/11/29 01:44:07;;;;;;;43.17;27.35;;;;;;;-1.15;100.00;94133.09;1018710;29;20490;-69
2021/11/29 01:44:38;;;;;;;52.60;28.88;;;;;;;-1.14;100.00;94138.03;1019286;29;20015;-69
2021/11/29 01:45:08;;;;;;;43.13;26.88;;;;;;;-1.13;100.00;94139.59;1023042;29;20031;-69
2021/11/29 01:45:40;;;;;;;46.58;28.73;;;;;;;-1.23;100.00;94127.31;1015348;29;20040;-68
2021/11/29 01:46:11;;;;;;;51.24;30.40;;;;;;;-1.21;100.00;94127.88;1015302;29;20024;-69
2021/11/29 01:46:42;;;;;;;45.30;29.10;;;;;;;-1.12;100.00;94145.50;1018848;29;20080;-69
2021/11/29 01:47:13;;;;;;;56.30;30.48;;;;;;;-1.12;100.00;94142.94;1014669;29;20032;-67
2021/11/29 01:47:43;;;;;;;48.08;28.77;;;;;;;-1.10;100.00;94140.94;1014267;29;20047;-69
2021/11/29 01:48:14;;;;;;;54.45;32.15;;;;;;;-1.12;100.00;94135.22;1011535;29;20027;-69
2021/11/29 01:48:44;;;;;;;48.38;28.95;;;;;;;-1.13;100.00;94128.50;1015260;29;20431;-69
2021/11/29 01:49:15;;;;;;;50.05;28.55;;;;;;;-1.04;100.00;94142.56;1023282;28;20102;-68
2021/11/29 01:49:45;;;;;;;45.28;27.50;;;;;;;-1.14;100.00;94124.34;1021673;29;20026;-68
2021/11/29 01:50:16;;;;;;;42.63;27.00;;;;;;;-1.04;100.00;94137.41;1018970;29;20024;-69
2021/11/29 01:50:47;;;;;;;42.65;28.23;;;;;;;-1.02;100.00;94137.97;1018816;29;20103;-69
2021/11/29 01:51:18;;;;;;;44.42;26.80;;;;;;;-1.21;100.00;94111.63;1013034;29;20024;-68
2021/11/29 01:51:49;;;;;;;46.13;27.77;;;;;;;-1.03;100.00;94141.56;1014776;29;20135;-68
2021/11/29 01:52:19;;;;;;;47.80;27.98;;;;;;;-1.11;100.00;94129.06;1015365;29;20024;-69
2021/11/29 01:52:50;;;;;;;46.60;29.27;;;;;;;-1.13;100.00;94120.78;1014978;29;20542;-68
2021/11/29 01:53:21;;;;;;;43.65;27.60;;;;;;;-1.04;100.00;94152.84;1015241;29;20395;-70
2021/11/29 01:53:52;;;;;;;48.24;30.12;;;;;;;-1.27;100.00;94108.19;1018902;29;20079;-67
2021/11/29 01:54:22;;;;;;;47.03;28.98;;;;;;;-1.06;100.00;94139.44;1015700;29;20020;-69
2021/11/29 01:54:53;;;;;;;46.95;29.15;;;;;;;-1.06;100.00;94139.44;1011621;29;20043;-65
2021/11/29 01:55:23;;;;;;;45.05;28.90;;;;;;;-1.14;100.00;94132.06;1011456;29;20058;-69
2021/11/29 01:55:57;;;;;;;48.97;29.38;;;;;;;-1.07;100.00;94148.97;1010625;29;20017;-68
2021/11/29 01:56:28;;;;;;;42.84;27.32;;;;;;;-1.13;100.00;94142.16;1015727;29;20159;-70
2021/11/29 01:56:58;;;;;;;43.88;27.70;;;;;;;-1.10;100.00;94153.78;1018223;29;20055;-70
2021/11/29 01:57:29;;;;;;;46.20;28.25;;;;;;;-1.10;100.00;94148.66;1019440;29;20143;-70
2021/11/29 01:57:59;;;;;;;41.65;27.30;;;;;;;-1.11;100.00;94149.63;1019277;29;20035;-68
2021/11/29 01:58:31;;;;;;;43.17;28.63;;;;;;;-1.14;100.00;94150.09;1022934;28;20024;-67
2021/11/29 01:59:02;;;;;;;41.64;26.78;;;;;;;-1.11;100.00;94150.41;1026857;28;20022;-68
2021/11/29 01:59:33;;;;;;;45.38;27.16;;;;;;;-1.17;100.00;94135.09;1021656;29;20019;-69
2021/11/29 02:00:06;;;;;;;38.22;25.68;;;;;;;-1.12;100.00;94145.50;1022662;29;20023;-69
2021/11/29 02:00:45;;;;;;;42.50;26.68;;;;;;;-1.14;100.00;94145.75;1023497;28;20019;-69
2021/11/29 02:01:17;;;;;;;39.04;25.70;;;;;;;-1.40;100.00;94113.59;1021065;29;20076;-68
2021/11/29 02:01:48;;;;;;;44.32;27.00;;;;;;;-1.15;100.00;94148.53;1021635;29;20028;-68
2021/11/29 02:02:18;;;;;;;36.75;25.08;;;;;;;-1.19;100.00;94146.41;1018655;29;20394;-69
2021/11/29 02:02:50;;;;;;;41.45;25.95;;;;;;;-1.23;100.00;94145.31;1015597;29;20016;-70
2021/11/29 02:03:23;;;;;;;39.86;25.88;;;;;;;-1.22;100.00;94152.03;1015868;29;20040;-69
2021/11/29 02:03:57;;;;;;;38.80;25.42;;;;;;;-1.24;100.00;94148.91;1015402;29;20047;-69
2021/11/29 02:04:27;;;;;;;43.34;27.86;;;;;;;-1.32;100.00;94135.59;1013534;29;20040;-68
2021/11/29 02:04:59;;;;;;;37.15;24.63;;;;;;;-1.22;100.00;94146.09;1011524;29;20487;-68
2021/11/29 02:05:30;;;;;;;37.60;24.98;;;;;;;-1.32;100.00;94136.38;1017007;29;20115;-69
2021/11/29 02:06:00;;;;;;;41.97;26.50;;;;;;;-1.28;100.00;94157.28;1015303;29;20047;-70
2021/11/29 02:06:32;;;;;;;42.00;26.95;;;;;;;-1.27;100.00;94149.38;1015859;29;20486;-69
2021/11/29 02:07:02;;;;;;;39.64;25.52;;;;;;;-1.33;100.00;94145.13;1015558;29;20020;-69
2021/11/29 02:07:33;;;;;;;40.53;25.98;;;;;;;-1.27;100.00;94153.72;1017920;29;20032;-68
2021/11/29 02:08:04;;;;;;;46.65;26.83;;;;;;;-1.27;100.00;94153.72;1019664;29;20031;-69
2021/11/29 02:08:34;;;;;;;39.33;25.92;;;;;;;-1.29;100.00;94155.75;1023597;28;20093;-69
2021/11/29 02:09:05;;;;;;;37.22;24.83;;;;;;;-1.28;100.00;94152.94;1023122;29;20353;-69
2021/11/29 02:09:36;;;;;;;43.60;25.88;;;;;;;-1.30;100.00;94152.38;1019643;29;20026;-69
2021/11/29 02:10:07;;;;;;;45.47;27.23;;;;;;;-1.31;100.00;94153.41;1022786;29;20094;-69
2021/11/29 02:10:37;;;;;;;37.30;24.90;;;;;;;-1.32;100.00;94156.97;1019555;29;20489;-69
2021/11/29 02:11:08;;;;;;;38.13;24.10;;;;;;;-1.30;100.00;94151.63;1019405;29;20099;-69
2021/11/29 02:11:38;;;;;;;41.72;25.58;;;;;;;-1.40;100.00;94141.13;1019198;29;20111;-69
2021/11/29 02:12:09;;;;;;;36.15;24.33;;;;;;;-1.29;100.00;94151.38;1018716;29;20020;-68
2021/11/29 02:12:39;;;;;;;40.65;25.35;;;;;;;-1.32;100.00;94161.34;1017033;29;20028;-68
2021/11/29 02:13:10;;;;;;;39.35;24.60;;;;;;;-1.32;100.00;94162.13;1019612;29;20027;-68
2021/11/29 02:13:40;;;;;;;42.20;25.48;;;;;;;-1.32;100.00;94154.41;1015631;29;20028;-70
2021/11/29 02:14:11;;;;;;;36.15;25.50;;;;;;;-1.31;100.00;94161.13;1014293;29;20035;-68
2021/11/29 02:14:46;;;;;;;37.30;25.02;;;;;;;-1.31;100.00;94162.91;1019380;29;20202;-68
2021/11/29 02:15:17;;;;;;;40.18;26.28;;;;;;;-1.32;100.00;94159.53;1016878;29;20043;-68
2021/11/29 02:15:51;;;;;;;45.83;25.85;;;;;;;-1.46;100.00;94135.88;1017103;29;20386;-69
2021/11/29 02:16:21;;;;;;;40.10;26.26;;;;;;;-1.32;100.00;94156.97;1015611;29;20035;-69
2021/11/29 02:16:52;;;;;;;37.67;24.88;;;;;;;-1.30;100.00;94159.34;1023299;29;20393;-69
2021/11/29 02:17:22;;;;;;;32.65;22.75;;;;;;;-1.32;100.00;94162.13;1019186;29;20054;-65
2021/11/29 02:17:53;;;;;;;36.70;23.92;;;;;;;-1.31;100.00;94152.59;1019861;29;20023;-69
2021/11/29 02:18:25;;;;;;;36.25;25.13;;;;;;;-1.31;100.00;94158.56;1023314;29;20011;-69
2021/11/29 02:18:56;;;;;;;39.80;25.46;;;;;;;-1.34;100.00;94156.44;1019866;29;20024;-68
2021/11/29 02:19:26;;;;;;;37.72;25.42;;;;;;;-1.33;100.00;94155.41;1015558;29;20024;-69
2021/11/29 02:19:57;;;;;;;37.88;25.10;;;;;;;-1.33;100.00;94155.41;1014403;29;20135;-68
2021/11/29 02:20:29;;;;;;;37.90;23.98;;;;;;;-1.38;100.00;94147.59;1015662;29;20032;-69
2021/11/29 02:21:09;;;;;;;37.92;24.68;;;;;;;-1.31;100.00;94150.03;1015668;29;20044;-68